CJH3 weather

Maidstone Airport
Maidstone, Saskatchewan, Canada

Public forecast

Using degrees Celsius for public forecast. Weather courtesy of forecast.io.

METAR (pilot weather report)

Closest report is Lloydminster Airport, 29.8 nm (55.3 km) WNW. Retrieved 2019/04/23 21:00 UTC (52 minutes ago):

CYLL 232100Z 30024G33KT 15SM FEW070 FEW100 BKN280 16/M06 A2972 RMK CU1AC1CI4 SLP080 DENSITY ALT 3100FT

TAF (pilot weather forecast)

Closest forecast is Lloydminster Airport, 29.8 nm (55.3 km) WNW. Retrieved 2019/04/23 18:39 UTC (3 hours ago):

TAF TAF CYLL 231738Z 2318/2406 30022G32KT P6SM FEW060 BKN260 BECMG 2401/2403 30012KT RMK NXT FCST BY 240000Z